Time;durP1;ratioP1;P1;durP2;ratioP2;P2;SDS_P1;SDS_P2;PMS_P1;PMS_P2;Temp;Humidity;BMP_temperature;BMP_pressure;BME280_temperature;BME280_humidity;BME280_pressure;Samples;Min_cycle;Max_cycle;Signal;HPM_P1;HPM_P2
2022/12/13 00:00:18;;;;;;;9.97;6.30;;;;;;;-6.25;84.20;97330.53;6243086;28;20595;-66
2022/12/13 00:03:20;;;;;;;11.27;6.97;;;;;;;-6.36;84.64;97334.16;6244539;28;20373;-66
2022/12/13 00:06:22;;;;;;;8.70;5.67;;;;;;;-6.48;84.53;97333.53;6242556;28;20227;-66
2022/12/13 00:09:24;;;;;;;11.10;6.10;;;;;;;-6.59;85.42;97335.50;6245823;28;20313;-66
2022/12/13 00:12:26;;;;;;;12.20;6.73;;;;;;;-6.68;84.98;97331.34;6239493;28;20232;-66
2022/12/13 00:15:28;;;;;;;13.03;6.70;;;;;;;-6.79;85.56;97334.09;6244800;28;20247;-66
2022/12/13 00:18:31;;;;;;;8.27;5.77;;;;;;;-6.95;85.40;97337.81;6243414;28;20600;-66
2022/12/13 00:21:33;;;;;;;8.33;5.37;;;;;;;-7.07;86.43;97333.72;6246865;28;20237;-66
2022/12/13 00:24:35;;;;;;;10.20;5.63;;;;;;;-7.11;85.66;97341.53;6241871;28;20297;-66
2022/12/13 00:27:45;;;;;;;8.77;6.10;;;;;;;-7.20;86.51;97339.97;6220302;28;20230;-66
2022/12/13 00:30:47;;;;;;;8.97;5.67;;;;;;;-7.29;86.29;97345.22;6242610;28;20765;-66
2022/12/13 00:33:49;;;;;;;10.30;6.20;;;;;;;-7.36;86.87;97346.16;6242653;28;20216;-66
2022/12/13 00:36:53;;;;;;;9.57;6.00;;;;;;;-7.47;86.27;97351.47;6245350;28;20314;-66
2022/12/13 00:39:55;;;;;;;12.00;6.13;;;;;;;-7.61;86.12;97349.97;6223558;28;20242;-66
2022/12/13 00:42:57;;;;;;;11.43;6.13;;;;;;;-7.70;86.05;97360.34;6232823;28;20249;-66
2022/12/13 00:45:59;;;;;;;11.67;6.03;;;;;;;-7.78;87.59;97362.19;6243903;28;20317;-66
2022/12/13 00:49:01;;;;;;;10.53;6.00;;;;;;;-7.85;87.62;97361.41;6245143;28;20227;-66
2022/12/13 00:52:03;;;;;;;10.47;5.97;;;;;;;-7.94;87.10;97364.94;6228425;28;20284;-66
2022/12/13 00:55:06;;;;;;;11.90;5.90;;;;;;;-8.00;87.62;97362.47;6241142;28;20921;-66
2022/12/13 00:58:08;;;;;;;11.43;6.47;;;;;;;-8.07;86.76;97362.53;6243087;28;20239;-66
2022/12/13 01:01:13;;;;;;;10.33;6.00;;;;;;;-8.13;88.19;97370.28;6224712;28;20323;-66
2022/12/13 01:04:15;;;;;;;11.63;5.73;;;;;;;-8.20;87.39;97370.38;6244812;28;20289;-66
2022/12/13 01:07:17;;;;;;;10.83;6.40;;;;;;;-8.23;87.53;97372.97;6239957;28;20254;-66
2022/12/13 01:10:19;;;;;;;10.87;6.10;;;;;;;-8.25;88.30;97366.16;6243735;28;20231;-66
2022/12/13 01:13:21;;;;;;;9.87;6.20;;;;;;;-8.31;88.54;97364.53;6241449;28;20607;-66
2022/12/13 01:16:23;;;;;;;10.93;6.63;;;;;;;-8.35;88.28;97368.00;6241792;28;20256;-66
2022/12/13 01:19:27;;;;;;;8.63;5.27;;;;;;;-8.42;88.96;97380.91;6243357;28;20612;-66
2022/12/13 01:22:31;;;;;;;9.07;5.20;;;;;;;-8.48;89.00;97371.56;6231512;28;20227;-66
2022/12/13 01:25:36;;;;;;;11.97;5.90;;;;;;;-8.53;88.20;97378.44;6239901;28;20773;-66
2022/12/13 01:28:39;;;;;;;11.57;6.10;;;;;;;-8.56;88.43;97381.03;6240836;28;20279;-66
2022/12/13 01:31:41;;;;;;;7.17;5.20;;;;;;;-8.61;88.76;97370.84;6223709;28;20336;-66
2022/12/13 01:34:43;;;;;;;11.07;6.27;;;;;;;-8.64;88.67;97372.59;6239897;28;20241;-66
2022/12/13 01:37:45;;;;;;;11.50;5.90;;;;;;;-8.68;89.15;97374.31;6240818;28;20722;-66
2022/12/13 01:40:56;;;;;;;11.57;6.37;;;;;;;-8.73;88.33;97370.13;6239507;28;20741;-66
2022/12/13 01:44:04;;;;;;;10.73;5.83;;;;;;;-8.76;89.32;97365.88;6241820;28;20572;-66
2022/12/13 01:47:06;;;;;;;9.53;6.07;;;;;;;-8.79;88.82;97360.81;6240720;28;20225;-66
2022/12/13 01:50:18;;;;;;;8.63;5.83;;;;;;;-8.80;88.50;97364.22;6242787;28;20305;-66
2022/12/13 01:53:24;;;;;;;9.63;5.40;;;;;;;-8.80;89.94;97363.38;6223743;28;20231;-66
2022/12/13 01:56:32;;;;;;;7.60;5.40;;;;;;;-8.85;90.23;97367.69;6238332;28;20228;-66
2022/12/13 01:59:37;;;;;;;11.77;6.17;;;;;;;-8.91;89.85;97367.75;6239734;28;20312;-66
2022/12/13 02:02:39;;;;;;;9.90;5.80;;;;;;;-8.97;89.57;97359.25;6241719;28;20318;-66
2022/12/13 02:05:50;;;;;;;10.13;6.03;;;;;;;-8.99;90.38;97360.16;6237907;28;20305;-66
2022/12/13 02:08:52;;;;;;;10.87;5.53;;;;;;;-9.02;89.79;97366.13;6239819;28;20246;-66
2022/12/13 02:11:54;;;;;;;9.47;5.90;;;;;;;-9.06;90.69;97356.78;6220429;28;20235;-66
2022/12/13 02:14:59;;;;;;;12.23;5.83;;;;;;;-9.07;90.69;97364.47;6238111;28;20243;-66
2022/12/13 02:18:05;;;;;;;11.80;6.17;;;;;;;-9.12;89.89;97350.88;6241168;28;20311;-66
2022/12/13 02:21:07;;;;;;;12.00;5.27;;;;;;;-9.15;89.35;97358.56;6239988;28;20215;-66
2022/12/13 02:24:50;;;;;;;10.03;5.53;;;;;;;-9.22;90.59;97357.78;6220862;28;20312;-66
2022/12/13 02:28:19;;;;;;;9.17;5.37;;;;;;;-9.24;89.88;97350.97;6214819;28;20269;-66
2022/12/13 02:31:58;;;;;;;11.20;5.53;;;;;;;-9.26;89.77;97352.69;6238095;28;20710;-66
2022/12/13 02:35:29;;;;;;;9.27;5.00;;;;;;;-9.25;90.19;97351.84;6206868;28;20235;-66
2022/12/13 02:38:45;;;;;;;12.43;5.97;;;;;;;-9.26;90.83;97352.69;6204468;28;20742;-66
2022/12/13 02:41:55;;;;;;;12.30;5.80;;;;;;;-9.34;90.73;97353.63;6239801;28;20237;-66
2022/12/13 02:45:07;;;;;;;8.67;5.40;;;;;;;-9.37;90.21;97361.28;6238921;28;20667;-66
2022/12/13 02:48:12;;;;;;;8.93;5.17;;;;;;;-9.38;90.41;97359.59;6238281;28;20275;-66
2022/12/13 02:51:16;;;;;;;8.90;5.00;;;;;;;-9.40;91.04;97365.59;6242965;28;21055;-66
2022/12/13 02:54:18;;;;;;;10.30;5.70;;;;;;;-9.43;90.68;97361.34;6230673;28;20215;-66
2022/12/13 02:57:33;;;;;;;8.47;4.80;;;;;;;-9.47;91.41;97357.09;6237227;28;20231;-66
2022/12/13 03:00:38;;;;;;;8.83;5.23;;;;;;;-9.49;91.51;97358.00;6238804;28;20587;-66
2022/12/13 03:04:00;;;;;;;8.10;4.93;;;;;;;-9.52;90.88;97360.56;6240214;28;20319;-66
2022/12/13 03:07:16;;;;;;;10.83;5.30;;;;;;;-9.56;90.98;97363.97;6230069;28;20231;-66
2022/12/13 03:10:27;;;;;;;10.10;5.03;;;;;;;-9.59;90.89;97356.38;6234956;28;20254;-66
2022/12/13 03:13:56;;;;;;;8.73;4.67;;;;;;;-9.61;91.13;97363.19;6244254;28;20318;-66
2022/12/13 03:17:01;;;;;;;8.73;5.07;;;;;;;-9.62;91.90;97375.09;6218394;28;20219;-66
2022/12/13 03:20:05;;;;;;;9.50;4.73;;;;;;;-9.64;91.35;97356.38;6245396;28;20318;-66
2022/12/13 03:23:25;;;;;;;11.90;5.43;;;;;;;-9.68;91.39;97358.09;6237045;28;20806;-67
2022/12/13 03:26:27;;;;;;;7.77;4.47;;;;;;;-9.70;90.96;97353.88;6243639;28;20228;-66
2022/12/13 03:29:29;;;;;;;7.37;4.40;;;;;;;-9.72;90.88;97351.31;6233938;28;20231;-67
2022/12/13 03:32:31;;;;;;;8.53;4.60;;;;;;;-9.70;91.23;97353.88;6247648;28;20271;-66
2022/12/13 03:35:33;;;;;;;10.13;5.03;;;;;;;-9.74;91.67;97345.38;6230178;28;20234;-67
2022/12/13 03:38:49;;;;;;;6.97;4.37;;;;;;;-9.80;91.11;97350.53;6224721;28;20242;-67
2022/12/13 03:41:51;;;;;;;10.03;4.80;;;;;;;-9.86;91.48;97345.44;6247336;28;20237;-66
2022/12/13 03:44:53;;;;;;;9.67;4.40;;;;;;;-9.90;91.32;97341.22;6232554;28;20725;-67
2022/12/13 03:47:55;;;;;;;7.60;4.37;;;;;;;-9.92;91.11;97334.44;6241321;28;20227;-66
2022/12/13 03:50:57;;;;;;;6.07;4.17;;;;;;;-9.93;91.32;97338.69;6248128;28;20229;-67
2022/12/13 03:53:59;;;;;;;8.07;4.17;;;;;;;-9.93;91.20;97332.72;6243421;28;20655;-66
2022/12/13 03:57:02;;;;;;;6.47;4.23;;;;;;;-9.92;91.79;97337.84;6242425;28;20600;-66
2022/12/13 04:00:05;;;;;;;7.20;4.13;;;;;;;-9.91;91.04;97336.97;6246986;28;20272;-66
2022/12/13 04:03:13;;;;;;;6.87;4.10;;;;;;;-9.91;91.65;97331.88;6221115;28;20231;-67
2022/12/13 04:06:15;;;;;;;7.37;4.10;;;;;;;-9.90;91.49;97330.19;6243751;28;20781;-67
2022/12/13 04:09:24;;;;;;;7.00;3.70;;;;;;;-9.93;91.64;97336.13;6251881;28;20321;-67
2022/12/13 04:15:49;;;;;;;7.00;3.67;;;;;;;-9.95;91.50;97335.28;6242800;28;20255;-67
2022/12/13 04:18:51;;;;;;;6.77;3.90;;;;;;;-10.00;91.74;97331.09;6243335;28;20238;-66
2022/12/13 04:21:53;;;;;;;5.67;3.70;;;;;;;-10.04;91.54;97332.78;6243522;28;20725;-66
2022/12/13 04:24:55;;;;;;;7.57;3.87;;;;;;;-10.03;91.65;97334.50;6242363;28;20884;-66
2022/12/13 04:27:57;;;;;;;7.53;3.70;;;;;;;-10.02;91.39;97325.13;6242398;28;20318;-66
2022/12/13 04:30:59;;;;;;;6.63;3.20;;;;;;;-10.09;91.54;97325.19;6223420;28;20227;-66
2022/12/13 04:34:01;;;;;;;6.40;3.50;;;;;;;-10.15;91.77;97325.19;6231988;28;20850;-66
2022/12/13 04:37:04;;;;;;;7.07;4.20;;;;;;;-10.13;91.35;97325.19;6232523;28;20385;-66
2022/12/13 04:40:06;;;;;;;4.70;2.87;;;;;;;-10.14;92.10;97328.59;6244134;28;20309;-66
2022/12/13 04:43:09;;;;;;;5.07;2.77;;;;;;;-10.18;91.13;97320.13;6241731;28;20235;-66
2022/12/13 04:46:11;;;;;;;3.87;2.60;;;;;;;-10.19;91.39;97318.47;6241472;28;20816;-66
2022/12/13 04:49:13;;;;;;;3.27;2.47;;;;;;;-10.23;91.66;97326.13;6244936;28;20219;-66
2022/12/13 04:52:15;;;;;;;3.70;2.50;;;;;;;-10.24;91.56;97324.41;6243752;28;20285;-66
2022/12/13 04:55:23;;;;;;;3.40;2.07;;;;;;;-10.23;91.85;97318.47;6232195;28;20242;-66
2022/12/13 04:58:26;;;;;;;4.23;2.50;;;;;;;-10.23;91.55;97321.88;6243357;28;20761;-66
2022/12/13 05:01:28;;;;;;;3.57;2.40;;;;;;;-10.23;91.83;97315.91;6240026;28;20706;-66
2022/12/13 05:04:30;;;;;;;4.90;2.27;;;;;;;-10.25;91.74;97317.63;6231730;28;20273;-66
2022/12/13 05:07:34;;;;;;;4.50;2.67;;;;;;;-10.25;91.81;97315.06;6215887;28;20269;-66
2022/12/13 05:10:43;;;;;;;3.83;2.80;;;;;;;-10.26;91.51;97316.78;6241421;28;20228;-66
2022/12/13 05:13:45;;;;;;;4.67;2.40;;;;;;;-10.30;90.86;97315.13;6241969;28;20787;-67
2022/12/13 05:16:47;;;;;;;4.50;2.60;;;;;;;-10.34;91.67;97315.97;6241248;28;20317;-66
2022/12/13 05:19:49;;;;;;;4.80;2.63;;;;;;;-10.37;91.56;97315.13;6244512;28;20234;-66
2022/12/13 05:22:51;;;;;;;2.60;2.03;;;;;;;-10.39;91.85;97317.72;6231940;28;20596;-67
2022/12/13 05:25:53;;;;;;;3.87;2.67;;;;;;;-10.37;91.23;97315.97;6242403;28;20333;-67
2022/12/13 05:28:56;;;;;;;4.90;2.60;;;;;;;-10.40;91.78;97302.41;6233003;28;20709;-66
2022/12/13 05:31:58;;;;;;;28.07;9.13;;;;;;;-10.45;90.92;97305.81;6231486;28;20218;-66
2022/12/13 05:35:00;;;;;;;5.97;3.67;;;;;;;-10.47;91.77;97311.75;6221251;28;20231;-66
2022/12/13 05:38:03;;;;;;;4.03;2.77;;;;;;;-10.47;90.86;97314.31;6242405;28;20226;-66
2022/12/13 05:41:06;;;;;;;5.10;2.87;;;;;;;-10.49;90.94;97311.78;6240230;28;20362;-66
2022/12/13 05:44:09;;;;;;;4.87;2.77;;;;;;;-10.54;91.07;97310.94;6240311;28;20312;-67
2022/12/13 05:47:11;;;;;;;4.03;2.47;;;;;;;-10.55;91.34;97308.41;6241223;28;20523;-66
2022/12/13 05:50:15;;;;;;;4.70;2.60;;;;;;;-10.54;91.75;97310.94;6244093;28;20265;-67
2022/12/13 05:53:18;;;;;;;6.13;2.67;;;;;;;-10.51;91.75;97305.84;6222799;28;20227;-66
2022/12/13 05:56:31;;;;;;;5.77;2.70;;;;;;;-10.50;91.56;97301.59;6234340;28;20235;-66
2022/12/13 05:59:33;;;;;;;4.83;2.73;;;;;;;-10.50;91.26;97306.69;6239086;28;20326;-66
2022/12/13 06:02:37;;;;;;;2.77;2.30;;;;;;;-10.49;91.46;97305.84;6238776;28;20235;-66
2022/12/13 06:05:41;;;;;;;3.20;2.00;;;;;;;-10.47;91.74;97306.66;6230779;28;20276;-66
2022/12/13 06:08:43;;;;;;;3.97;2.50;;;;;;;-10.48;91.06;97310.09;6240077;28;20768;-67
2022/12/13 06:11:45;;;;;;;4.93;2.80;;;;;;;-10.50;91.17;97316.91;6216604;28;20220;-67
2022/12/13 06:14:47;;;;;;;3.53;2.37;;;;;;;-10.52;91.48;97313.50;6240458;28;20592;-66
2022/12/13 06:17:49;;;;;;;5.93;3.33;;;;;;;-10.53;91.65;97315.19;6239756;28;20223;-66
2022/12/13 06:20:57;;;;;;;6.67;4.67;;;;;;;-10.56;91.76;97322.84;6240409;28;20227;-66
2022/12/13 06:23:59;;;;;;;8.00;4.47;;;;;;;-10.54;91.93;97325.41;6237140;28;20235;-66
2022/12/13 06:27:01;;;;;;;7.63;4.27;;;;;;;-10.53;91.63;97322.00;6238000;28;20232;-66
2022/12/13 06:30:03;;;;;;;4.37;2.83;;;;;;;-10.57;91.61;97328.78;6238687;28;20686;-66
2022/12/13 06:33:06;;;;;;;3.47;2.40;;;;;;;-10.57;92.02;97321.16;6226990;28;20216;-66
2022/12/13 06:36:08;;;;;;;4.93;2.57;;;;;;;-10.56;91.83;97322.00;6240188;28;20687;-67
2022/12/13 06:39:10;;;;;;;2.87;1.90;;;;;;;-10.58;91.65;97326.28;6229967;28;20303;-66
2022/12/13 06:42:15;;;;;;;3.33;2.10;;;;;;;-10.57;91.59;97331.34;6241678;28;20219;-66
2022/12/13 06:45:23;;;;;;;2.83;1.97;;;;;;;-10.54;91.28;97330.50;6244504;28;20748;-66
2022/12/13 06:48:25;;;;;;;4.57;2.27;;;;;;;-10.59;91.85;97330.53;6244715;28;20598;-66
2022/12/13 06:51:27;;;;;;;4.93;2.20;;;;;;;-10.57;91.41;97333.03;6249911;28;20314;-66
2022/12/13 06:54:34;;;;;;;5.07;2.33;;;;;;;-10.50;92.28;97327.94;6245471;28;20698;-66
2022/12/13 06:57:36;;;;;;;3.63;2.57;;;;;;;-10.48;91.37;97330.50;6235739;28;20231;-66
2022/12/13 07:00:41;;;;;;;3.13;2.20;;;;;;;-10.46;90.87;97332.16;6248268;28;20238;-66
2022/12/13 07:03:50;;;;;;;2.83;2.20;;;;;;;-10.40;91.02;97333.84;6245113;28;20238;-66
2022/12/13 07:06:52;;;;;;;4.87;2.40;;;;;;;-10.39;91.27;97338.09;6235703;28;20711;-66
2022/12/13 07:09:54;;;;;;;3.50;2.60;;;;;;;-10.38;91.39;97338.97;6244169;28;20235;-66
2022/12/13 07:12:56;;;;;;;4.53;2.40;;;;;;;-10.37;91.29;97338.06;6247120;28;20235;-67
2022/12/13 07:15:59;;;;;;;2.73;2.23;;;;;;;-10.32;90.85;97338.91;6244740;28;20320;-66
2022/12/13 07:19:03;;;;;;;4.73;2.60;;;;;;;-10.26;91.39;97343.97;6241346;28;20627;-66
2022/12/13 07:22:23;;;;;;;3.80;2.60;;;;;;;-10.22;91.35;97338.88;6241292;28;20246;-66
2022/12/13 07:25:25;;;;;;;3.87;2.10;;;;;;;-10.23;91.37;97347.38;6222914;28;20738;-66
2022/12/13 07:28:33;;;;;;;5.00;2.93;;;;;;;-10.24;91.84;97340.56;6244766;28;20730;-66
2022/12/13 07:31:36;;;;;;;4.50;2.60;;;;;;;-10.24;91.11;97345.69;6225537;28;20768;-66
2022/12/13 07:34:38;;;;;;;5.27;2.97;;;;;;;-10.22;91.32;97348.22;6223043;28;20314;-66
2022/12/13 07:37:40;;;;;;;4.87;2.60;;;;;;;-10.21;90.85;97342.28;6243210;28;20729;-66
2022/12/13 07:40:42;;;;;;;4.27;2.47;;;;;;;-10.17;90.78;97338.81;6224512;28;20247;-66
2022/12/13 07:43:44;;;;;;;4.07;2.17;;;;;;;-10.09;91.36;97340.50;6245827;28;20286;-66
2022/12/13 07:46:47;;;;;;;4.77;3.00;;;;;;;-9.99;90.99;97340.44;6232959;28;20682;-66
2022/12/13 07:49:49;;;;;;;5.27;2.50;;;;;;;-9.92;91.33;97330.19;6231617;28;20251;-66
2022/12/13 07:52:51;;;;;;;4.77;2.80;;;;;;;-9.82;90.96;97329.28;6244391;28;20734;-66
2022/12/13 07:55:54;;;;;;;4.53;3.17;;;;;;;-9.75;90.71;97330.91;6243580;28;20233;-66
2022/12/13 07:58:56;;;;;;;6.40;3.60;;;;;;;-9.67;90.81;97330.84;6246035;28;20711;-66
2022/12/13 08:01:58;;;;;;;8.13;3.73;;;;;;;-9.60;90.74;97324.03;6233167;28;20237;-66
2022/12/13 08:05:03;;;;;;;5.83;3.47;;;;;;;-9.51;91.14;97314.59;6242977;28;20712;-67
2022/12/13 08:08:25;;;;;;;6.03;3.70;;;;;;;-9.42;91.17;97321.31;6242321;28;20266;-67
2022/12/13 08:11:32;;;;;;;7.30;3.70;;;;;;;-9.35;90.73;97320.41;6243916;28;20230;-67
2022/12/13 08:14:34;;;;;;;6.80;3.93;;;;;;;-9.28;91.61;97323.78;6244300;28;20621;-66
2022/12/13 08:17:37;;;;;;;6.27;3.70;;;;;;;-9.20;91.31;97322.00;6243625;28;20374;-66
2022/12/13 08:20:39;;;;;;;7.73;3.97;;;;;;;-9.10;91.09;97311.69;6245554;28;20686;-66
2022/12/13 08:23:41;;;;;;;5.87;3.83;;;;;;;-9.00;91.24;97303.06;6241441;28;20713;-66
2022/12/13 08:26:43;;;;;;;5.23;3.50;;;;;;;-8.89;90.65;97309.78;6243645;28;20230;-66
2022/12/13 08:29:45;;;;;;;4.67;3.37;;;;;;;-8.79;92.02;97311.38;6221151;28;20600;-67
2022/12/13 08:32:49;;;;;;;6.07;3.20;;;;;;;-8.68;91.03;97310.38;6242499;28;20231;-66
2022/12/13 08:35:51;;;;;;;6.90;3.30;;;;;;;-8.55;91.26;97307.69;6242350;28;20272;-67
2022/12/13 08:38:55;;;;;;;5.37;3.40;;;;;;;-8.42;90.81;97294.75;6224699;28;20314;-67
2022/12/13 08:41:58;;;;;;;5.20;2.93;;;;;;;-8.29;91.74;97291.16;6242996;28;20228;-68
2022/12/13 08:45:16;;;;;;;5.40;3.17;;;;;;;-8.09;92.50;97288.34;6241463;28;20607;-67
2022/12/13 08:48:18;;;;;;;6.33;3.67;;;;;;;-7.91;91.63;97292.34;6243631;28;20623;-67
2022/12/13 08:51:23;;;;;;;5.43;3.37;;;;;;;-7.69;92.23;97300.59;6248114;28;20239;-67
2022/12/13 08:54:34;;;;;;;5.90;3.37;;;;;;;-7.43;92.44;97300.16;6240433;28;20231;-67
2022/12/13 08:57:37;;;;;;;4.20;2.67;;;;;;;-7.18;91.80;97296.31;6242807;28;20254;-66
2022/12/13 09:00:41;;;;;;;4.43;3.07;;;;;;;-6.91;91.74;97292.47;6241396;28;20230;-67
2022/12/13 09:03:43;;;;;;;5.47;3.23;;;;;;;-6.61;91.12;97286.75;6231436;28;20350;-67
2022/12/13 09:06:45;;;;;;;5.90;4.33;;;;;;;-6.39;90.40;97277.75;6238423;28;20255;-67
2022/12/13 09:09:47;;;;;;;5.03;3.07;;;;;;;-6.10;89.82;97279.75;6238407;28;20581;-67
2022/12/13 09:13:00;;;;;;;7.43;4.57;;;;;;;-5.60;87.72;97275.19;6218086;28;20236;-67
2022/12/13 09:16:10;;;;;;;9.07;4.10;;;;;;;-5.29;87.33;97272.72;6231745;28;20236;-67
2022/12/13 09:19:25;;;;;;;5.70;3.80;;;;;;;-4.86;86.75;97265.59;6225930;28;20282;-67
2022/12/13 09:22:28;;;;;;;5.17;3.30;;;;;;;-4.59;85.53;97268.34;6242379;28;20590;-68
2022/12/13 09:25:34;;;;;;;5.53;3.33;;;;;;;-4.31;83.85;97268.41;6229756;28;20714;-66
2022/12/13 09:28:39;;;;;;;4.93;3.33;;;;;;;-3.92;83.41;97258.69;6239036;28;20890;-67
2022/12/13 09:31:42;;;;;;;6.40;4.07;;;;;;;-3.68;79.81;97252.75;6239430;28;20244;-67
2022/12/13 09:34:53;;;;;;;5.10;3.50;;;;;;;-3.46;78.97;97252.94;6236065;28;20232;-67
2022/12/13 09:37:55;;;;;;;5.50;3.50;;;;;;;-3.19;80.32;97253.78;6240242;28;20707;-67
2022/12/13 09:41:02;;;;;;;8.17;4.47;;;;;;;-3.06;78.54;97245.59;6231030;28;20763;-67
2022/12/13 09:44:20;;;;;;;7.87;4.70;;;;;;;-2.83;74.39;97246.56;6240204;28;20227;-66
2022/12/13 09:47:43;;;;;;;7.23;4.90;;;;;;;-2.75;73.03;97250.56;6221556;28;20257;-66
2022/12/13 09:50:49;;;;;;;7.57;4.70;;;;;;;-2.53;69.50;97240.31;6241971;28;20227;-66
2022/12/13 09:54:17;;;;;;;5.63;3.70;;;;;;;-2.36;69.35;97243.13;6229786;28;20297;-66
2022/12/13 09:57:25;;;;;;;6.90;4.30;;;;;;;-2.30;68.68;97247.25;6236420;28;20696;-66
2022/12/13 10:00:35;;;;;;;8.70;4.70;;;;;;;-2.08;69.85;97237.78;6239224;28;20353;-67
2022/12/13 10:03:43;;;;;;;6.53;4.67;;;;;;;-2.00;67.95;97229.78;6222231;28;20232;-66
2022/12/13 10:06:45;;;;;;;8.87;4.77;;;;;;;-2.00;67.59;97232.34;6239469;28;20224;-66
2022/12/13 10:09:48;;;;;;;8.30;4.67;;;;;;;-1.76;65.73;97235.72;6235159;28;20706;-66
2022/12/13 10:13:02;;;;;;;5.73;3.90;;;;;;;-1.73;65.81;97225.28;6239316;28;20637;-66
2022/12/13 10:16:10;;;;;;;6.10;4.13;;;;;;;-1.51;65.80;97220.94;6222213;28;20231;-66
2022/12/13 10:19:31;;;;;;;7.23;5.00;;;;;;;-1.77;61.96;97215.94;6241118;28;20251;-66
2022/12/13 10:22:33;;;;;;;10.70;4.73;;;;;;;-1.83;61.94;97213.59;6226984;28;20289;-67
2022/12/13 10:25:53;;;;;;;6.07;4.23;;;;;;;-1.63;62.98;97214.50;6218741;28;20698;-66
2022/12/13 10:29:05;;;;;;;8.00;4.87;;;;;;;-1.68;59.71;97207.81;6246889;28;20657;-67
2022/12/13 10:32:12;;;;;;;8.73;4.50;;;;;;;-1.59;60.31;97204.88;6244426;28;20231;-66
2022/12/13 10:35:29;;;;;;;7.67;4.17;;;;;;;-1.48;59.93;97203.53;6227960;28;20689;-66
2022/12/13 10:38:36;;;;;;;11.17;4.33;;;;;;;-1.50;60.06;97192.41;6226014;28;20332;-66
2022/12/13 10:41:38;;;;;;;10.47;4.60;;;;;;;-1.52;59.80;97196.81;6244546;28;20232;-66
2022/12/13 10:44:41;;;;;;;7.60;4.77;;;;;;;-1.21;60.92;97185.22;6245607;28;20725;-65
2022/12/13 10:47:44;;;;;;;6.57;4.30;;;;;;;-1.26;57.35;97187.97;6226234;28;20237;-66
2022/12/13 10:51:18;;;;;;;9.47;5.30;;;;;;;-1.57;58.53;97180.63;6249116;28;20227;-66
2022/12/13 10:54:30;;;;;;;9.90;5.10;;;;;;;-1.39;60.22;97180.78;6164029;28;20288;-66
2022/12/13 10:57:54;;;;;;;7.53;4.23;;;;;;;-1.25;59.20;97176.72;6163448;28;20270;-66
2022/12/13 11:01:08;;;;;;;8.40;4.90;;;;;;;-1.23;59.44;97174.94;6167163;28;20281;-67
2022/12/13 11:04:42;;;;;;;5.90;4.10;;;;;;;-0.89;59.31;97169.13;6164120;28;20244;-67
2022/12/13 11:07:45;;;;;;;8.30;4.67;;;;;;;-0.75;59.50;97168.56;6084194;29;20592;-67
2022/12/13 11:11:04;;;;;;;7.73;4.77;;;;;;;-0.78;58.47;97159.16;6084952;29;20379;-68
2022/12/13 11:14:17;;;;;;;8.67;4.90;;;;;;;-0.73;58.75;97169.34;6081789;29;20253;-68
2022/12/13 11:17:49;;;;;;;7.43;4.53;;;;;;;-0.94;59.05;97165.91;6081973;29;20231;-67
2022/12/13 11:21:00;;;;;;;10.23;4.90;;;;;;;-0.85;59.23;97154.31;6081008;29;20243;-68
2022/12/13 11:24:06;;;;;;;5.90;4.20;;;;;;;-0.88;59.52;97147.50;6068348;29;20642;-68
2022/12/13 11:27:25;;;;;;;8.07;4.57;;;;;;;-0.77;58.86;97149.63;6084718;29;20244;-68
2022/12/13 11:31:12;;;;;;;6.30;4.37;;;;;;;-0.58;58.40;97140.13;6107655;29;20834;-68
2022/12/13 11:34:50;;;;;;;6.90;4.43;;;;;;;-0.59;59.00;97128.09;6131713;28;20325;-68
2022/12/13 11:38:07;;;;;;;8.67;4.70;;;;;;;-0.51;58.15;97132.97;6129795;28;20708;-68
2022/12/13 11:41:21;;;;;;;11.03;5.70;;;;;;;-0.34;58.92;97135.63;6128920;28;20588;-68
2022/12/13 11:44:39;;;;;;;12.90;4.67;;;;;;;-0.20;57.32;97128.03;6240567;28;20266;-68
2022/12/13 11:48:12;;;;;;;7.67;5.20;;;;;;;0.13;59.63;97123.00;6241799;28;20232;-68
2022/12/13 11:51:23;;;;;;;8.37;4.90;;;;;;;0.15;58.29;97126.38;6240479;28;20276;-68
2022/12/13 11:54:52;;;;;;;8.97;4.90;;;;;;;0.25;56.45;97127.63;6243340;28;20223;-68
2022/12/13 11:58:05;;;;;;;8.10;5.00;;;;;;;0.24;57.63;97125.09;6242607;28;20226;-68
2022/12/13 12:01:13;;;;;;;8.53;4.83;;;;;;;0.56;56.79;97123.53;6241977;28;20702;-68
2022/12/13 12:04:35;;;;;;;11.03;4.77;;;;;;;0.73;56.73;97111.38;6242016;28;20232;-66
2022/12/13 12:07:50;;;;;;;7.57;4.87;;;;;;;1.18;56.70;97109.97;6240516;28;20313;-67
2022/12/13 12:11:34;;;;;;;5.87;4.30;;;;;;;1.58;56.06;97113.91;6243056;28;20231;-67
2022/12/13 12:14:40;;;;;;;9.33;4.73;;;;;;;1.42;55.81;97108.66;6239057;28;20224;-67
2022/12/13 12:17:42;;;;;;;7.73;4.80;;;;;;;1.12;55.74;97102.47;6241467;28;20668;-67
2022/12/13 12:21:04;;;;;;;6.83;4.67;;;;;;;1.46;54.42;97098.94;6241034;28;20729;-67
2022/12/13 12:24:15;;;;;;;9.03;4.13;;;;;;;1.62;54.21;97101.53;6244362;28;20240;-67
2022/12/13 12:27:27;;;;;;;6.10;3.80;;;;;;;1.96;54.14;97091.00;6241635;28;20637;-67
2022/12/13 12:30:55;;;;;;;9.77;4.47;;;;;;;1.92;53.18;97094.66;6242110;28;20700;-66
2022/12/13 12:34:19;;;;;;;5.53;3.47;;;;;;;2.03;53.08;97097.53;6245910;28;20224;-66
2022/12/13 12:37:59;;;;;;;6.30;4.00;;;;;;;2.17;52.88;97088.94;6242346;28;20234;-66
2022/12/13 12:41:10;;;;;;;6.93;3.93;;;;;;;2.23;51.59;97080.78;6231525;28;20252;-67
2022/12/13 12:44:45;;;;;;;6.63;3.83;;;;;;;3.77;49.54;97075.00;6241798;28;20265;-67
2022/12/13 12:48:15;;;;;;;6.57;3.67;;;;;;;5.69;44.27;97069.97;6238648;28;20331;-66
2022/12/13 12:51:55;;;;;;;4.40;3.17;;;;;;;5.59;43.68;97080.22;6247293;28;20248;-67
2022/12/13 12:55:20;;;;;;;11.23;4.00;;;;;;;3.35;46.35;97078.50;6241759;28;20749;-67
2022/12/13 12:58:52;;;;;;;4.87;3.33;;;;;;;1.60;50.88;97098.22;6241132;28;20251;-66
2022/12/13 13:02:06;;;;;;;6.63;3.93;;;;;;;0.51;54.10;97102.97;6241011;28;20322;-67
2022/12/13 13:05:41;;;;;;;6.80;3.97;;;;;;;-0.23;56.00;97104.84;6240596;28;20227;-67
2022/12/13 13:09:08;;;;;;;4.53;3.53;;;;;;;-0.54;57.33;97110.59;6240901;28;20230;-67
2022/12/13 13:12:10;;;;;;;4.90;3.73;;;;;;;-0.67;57.72;97095.66;6240686;28;20725;-67
2022/12/13 13:15:30;;;;;;;6.20;3.50;;;;;;;-0.84;58.84;97107.63;6231666;28;20227;-67
2022/12/13 13:18:44;;;;;;;6.47;4.43;;;;;;;-1.02;60.11;97110.19;6240744;28;20269;-67
2022/12/13 13:21:47;;;;;;;5.57;3.47;;;;;;;-1.14;60.61;97116.75;6239037;28;20232;-67
2022/12/13 13:25:21;;;;;;;5.77;3.67;;;;;;;-1.25;61.26;97121.53;6238615;28;20232;-67
2022/12/13 13:28:23;;;;;;;4.63;3.43;;;;;;;-1.39;62.25;97110.91;6230020;28;20239;-68
2022/12/13 13:31:26;;;;;;;7.03;3.97;;;;;;;-1.60;63.69;97118.66;6237118;28;20615;-68
2022/12/13 13:34:36;;;;;;;7.77;4.50;;;;;;;-1.64;63.54;97122.28;6243093;28;20240;-68
2022/12/13 13:37:47;;;;;;;9.23;4.83;;;;;;;-1.65;63.64;97120.59;6236278;28;20305;-68
2022/12/13 13:40:49;;;;;;;7.43;4.80;;;;;;;-1.67;64.14;97116.38;6221384;28;20737;-68
2022/12/13 13:43:51;;;;;;;6.57;4.57;;;;;;;-1.75;64.41;97116.72;6238592;28;20769;-68
2022/12/13 13:47:18;;;;;;;7.83;5.40;;;;;;;-1.84;65.90;97113.66;6244785;28;20719;-68
2022/12/13 13:50:48;;;;;;;6.90;4.90;;;;;;;-1.94;66.12;97126.94;6244183;28;20228;-68
2022/12/13 13:54:17;;;;;;;7.63;5.17;;;;;;;-1.90;66.16;97122.50;6183150;28;20312;-68
2022/12/13 13:57:25;;;;;;;8.30;4.87;;;;;;;-1.98;66.69;97127.97;6242230;28;20673;-68
2022/12/13 14:00:56;;;;;;;7.43;5.37;;;;;;;-2.14;67.41;97128.63;6243654;28;20295;-68
2022/12/13 14:04:09;;;;;;;7.60;4.47;;;;;;;-2.20;67.82;97128.88;6225317;28;20219;-67
2022/12/13 14:07:53;;;;;;;6.40;4.27;;;;;;;-2.21;67.71;97112.53;6230348;28;20239;-67
2022/12/13 14:11:12;;;;;;;7.57;4.77;;;;;;;-2.33;68.26;97125.91;6151704;28;20848;-68
2022/12/13 14:14:51;;;;;;;9.43;5.27;;;;;;;-2.48;69.50;97129.06;6151445;28;20262;-68
2022/12/13 14:18:29;;;;;;;6.27;4.57;;;;;;;-2.62;70.30;97116.69;6150786;28;20248;-67
2022/12/13 14:21:50;;;;;;;7.43;4.40;;;;;;;-2.75;70.30;97126.63;6151191;28;20230;-68
2022/12/13 14:25:33;;;;;;;6.30;4.53;;;;;;;-2.82;71.16;97139.81;6156345;28;20218;-66
2022/12/13 14:28:46;;;;;;;8.13;4.90;;;;;;;-2.99;71.55;97143.81;6129313;28;20257;-68
2022/12/13 14:31:49;;;;;;;5.20;4.20;;;;;;;-3.15;72.38;97147.84;6151030;28;20235;-68
2022/12/13 14:34:52;;;;;;;9.07;5.07;;;;;;;-3.29;73.38;97147.47;6135153;28;20571;-68
2022/12/13 14:37:57;;;;;;;10.10;5.00;;;;;;;-3.39;74.45;97156.41;6151799;28;20241;-67
2022/12/13 14:41:02;;;;;;;8.33;5.03;;;;;;;-3.45;74.80;97154.88;6151449;28;20278;-67
2022/12/13 14:44:23;;;;;;;8.17;4.93;;;;;;;-3.59;75.52;97158.84;6152283;28;20324;-67
2022/12/13 14:47:33;;;;;;;9.17;5.63;;;;;;;-3.68;76.19;97151.38;6197170;28;20280;-67
2022/12/13 14:50:38;;;;;;;7.60;5.33;;;;;;;-3.72;76.34;97148.06;6244444;28;20711;-66